createdAt,value
2023-03-20T00:02:23.133Z,64.33
2023-03-20T00:04:50.108Z,64.81
2023-03-20T00:07:16.745Z,64.94
2023-03-20T00:09:43.293Z,65.64
2023-03-20T00:12:24.070Z,66.02
2023-03-20T00:14:50.752Z,65.79
2023-03-20T00:17:21.104Z,65.90
2023-03-20T00:19:48.179Z,65.85
2023-03-20T00:22:14.664Z,65.38
2023-03-20T00:24:41.410Z,65.27
2023-03-20T00:27:14.338Z,65.18
2023-03-20T00:29:41.150Z,65.58
2023-03-20T00:32:15.034Z,65.55
2023-03-20T00:34:41.978Z,65.82
2023-03-20T00:37:11.416Z,65.57
2023-03-20T00:39:37.913Z,65.47
2023-03-20T00:42:11.421Z,65.27
2023-03-20T00:44:45.708Z,65.24
2023-03-20T00:47:18.551Z,64.83
2023-03-20T00:49:49.828Z,64.74
2023-03-20T00:52:19.581Z,65.23
2023-03-20T00:54:46.614Z,65.35
2023-03-20T00:57:30.514Z,65.41
2023-03-20T01:00:02.425Z,65.62
2023-03-20T01:02:31.129Z,65.57
2023-03-20T01:04:58.425Z,65.47
2023-03-20T01:07:24.948Z,66.09
2023-03-20T01:09:52.579Z,65.93
2023-03-20T01:12:19.230Z,65.37
2023-03-20T01:14:57.358Z,65.29
2023-03-20T01:17:26.761Z,65.44
2023-03-20T01:19:53.997Z,65.27
2023-03-20T01:22:20.537Z,65.31
2023-03-20T01:24:47.807Z,65.16
2023-03-20T01:27:18.128Z,65.44
2023-03-20T01:29:45.609Z,64.99
2023-03-20T01:32:18.601Z,64.95
2023-03-20T01:34:45.107Z,65.50
2023-03-20T01:37:23.853Z,65.43
2023-03-20T01:39:50.626Z,65.54
2023-03-20T01:42:18.117Z,65.37
2023-03-20T01:44:45.567Z,65.60
2023-03-20T01:47:19.041Z,65.15
2023-03-20T01:50:28.983Z,66.34
2023-03-20T01:53:05.915Z,66.48
2023-03-20T01:55:33.380Z,66.72
2023-03-20T01:58:08.933Z,66.08
2023-03-20T02:00:36.619Z,66.07
2023-03-20T02:03:07.458Z,66.17
2023-03-20T02:05:35.320Z,66.12
2023-03-20T02:08:32.600Z,65.67
2023-03-20T02:11:01.987Z,65.21
2023-03-20T02:13:31.715Z,64.77
2023-03-20T02:16:12.194Z,65.21
2023-03-20T02:18:45.657Z,65.36
2023-03-20T02:21:45.384Z,65.09
2023-03-20T02:25:24.567Z,65.23
2023-03-20T02:28:39.124Z,64.48
2023-03-20T02:31:42.104Z,64.69
2023-03-20T02:34:45.836Z,64.41
2023-03-20T02:37:47.740Z,64.88
2023-03-20T02:40:47.960Z,64.72
2023-03-20T02:43:43.069Z,64.10
2023-03-20T02:46:35.820Z,64.10
2023-03-20T02:49:33.860Z,64.09
2023-03-20T02:52:28.963Z,64.44
2023-03-20T02:55:35.556Z,63.65
2023-03-20T02:58:26.584Z,64.25
2023-03-20T03:01:16.035Z,64.22
2023-03-20T03:04:02.115Z,63.84
2023-03-20T03:06:32.597Z,63.70
2023-03-20T03:09:09.389Z,63.76
2023-03-20T03:11:43.835Z,63.88
2023-03-20T03:14:29.579Z,63.77
2023-03-20T03:17:01.052Z,64.40
2023-03-20T03:19:30.019Z,64.25
2023-03-20T03:21:56.774Z,64.55
2023-03-20T03:24:41.412Z,64.43
2023-03-20T03:27:42.578Z,64.86
2023-03-20T03:30:21.891Z,64.80
2023-03-20T03:33:20.058Z,64.80
2023-03-20T03:35:48.317Z,65.49
2023-03-20T03:38:54.083Z,65.05
2023-03-20T03:41:39.860Z,65.45
2023-03-20T03:44:16.038Z,65.83
2023-03-20T03:47:11.414Z,65.74
2023-03-20T03:49:46.044Z,65.09
2023-03-20T03:52:22.459Z,65.19
2023-03-20T03:54:56.685Z,64.75
2023-03-20T03:57:37.660Z,64.40
2023-03-20T04:00:07.215Z,64.13
2023-03-20T04:02:35.674Z,63.88
2023-03-20T04:05:06.353Z,63.85
2023-03-20T04:07:32.850Z,63.70
2023-03-20T04:09:59.327Z,63.76
2023-03-20T04:12:35.282Z,63.96
2023-03-20T04:15:03.601Z,63.79
2023-03-20T04:17:31.228Z,63.96
2023-03-20T04:19:58.271Z,63.47
2023-03-20T04:22:24.878Z,63.46
2023-03-20T04:24:52.599Z,63.56
2023-03-20T04:27:19.864Z,63.00
2023-03-20T04:29:46.664Z,62.87
2023-03-20T04:32:13.329Z,63.24
2023-03-20T04:34:39.868Z,62.94
2023-03-20T04:37:08.290Z,62.72
2023-03-20T04:39:36.750Z,62.86
2023-03-20T04:42:06.042Z,62.90
2023-03-20T04:44:32.653Z,62.87
2023-03-20T04:46:59.113Z,62.71
2023-03-20T04:49:25.781Z,62.10
2023-03-20T04:51:53.167Z,62.82
2023-03-20T04:54:19.674Z,62.77
2023-03-20T04:56:46.233Z,62.85
2023-03-20T04:59:12.864Z,62.75
2023-03-20T05:01:39.486Z,62.93
2023-03-20T05:04:06.518Z,63.05
2023-03-20T05:06:33.798Z,62.99
2023-03-20T05:09:00.948Z,62.67
2023-03-20T05:11:28.743Z,62.54
2023-03-20T05:13:55.677Z,63.15
2023-03-20T05:16:22.197Z,63.37
2023-03-20T05:18:48.816Z,62.89
2023-03-20T05:21:15.848Z,62.99
2023-03-20T05:23:42.317Z,62.81
2023-03-20T05:26:08.853Z,62.64
2023-03-20T05:28:35.394Z,62.89
2023-03-20T05:31:02.015Z,62.99
2023-03-20T05:33:28.665Z,62.96
2023-03-20T05:35:55.369Z,63.82
2023-03-20T05:38:25.625Z,63.98
2023-03-20T05:41:00.336Z,63.69
2023-03-20T05:43:29.031Z,63.50
2023-03-20T05:45:56.866Z,63.45
2023-03-20T05:48:23.940Z,63.97
2023-03-20T05:50:50.882Z,63.51
2023-03-20T05:53:17.457Z,64.10
2023-03-20T05:55:44.754Z,63.78
2023-03-20T05:58:12.196Z,63.74
2023-03-20T06:00:39.840Z,63.61
2023-03-20T06:03:09.546Z,63.44
2023-03-20T06:05:36.645Z,63.89
2023-03-20T06:08:04.618Z,63.45
2023-03-20T06:10:31.542Z,63.75
2023-03-20T06:13:01.068Z,63.82
2023-03-20T06:15:28.799Z,64.15
2023-03-20T06:17:56.388Z,63.70
2023-03-20T06:20:24.242Z,63.38
2023-03-20T06:22:51.239Z,63.64
2023-03-20T06:25:18.996Z,64.00
2023-03-20T06:27:49.067Z,63.79
2023-03-20T06:30:16.425Z,63.57
2023-03-20T06:32:43.772Z,63.44
2023-03-20T06:35:11.978Z,63.04
2023-03-20T06:37:38.672Z,62.88
2023-03-20T06:40:06.845Z,63.47
2023-03-20T06:42:33.501Z,62.95
2023-03-20T06:45:00.147Z,62.95
2023-03-20T06:47:27.055Z,62.81
2023-03-20T06:49:53.568Z,62.68
2023-03-20T06:52:25.062Z,62.84
2023-03-20T06:54:52.086Z,62.99
2023-03-20T06:57:18.620Z,62.94
2023-03-20T06:59:45.475Z,62.48
2023-03-20T07:02:12.072Z,62.81
2023-03-20T07:04:39.292Z,62.61
2023-03-20T07:07:05.829Z,61.99
2023-03-20T07:09:33.070Z,61.93
2023-03-20T07:12:00.160Z,62.24
2023-03-20T07:14:26.690Z,62.18
2023-03-20T07:16:53.282Z,62.64
2023-03-20T07:19:20.319Z,62.08
2023-03-20T07:21:47.081Z,62.15
2023-03-20T07:24:14.372Z,61.58
2023-03-20T07:26:41.232Z,61.83
2023-03-20T07:29:08.001Z,61.63
2023-03-20T07:31:34.658Z,61.61
2023-03-20T07:34:01.234Z,61.21
2023-03-20T07:36:27.775Z,61.77
2023-03-20T07:38:54.253Z,62.18
2023-03-20T07:41:20.846Z,61.74
2023-03-20T07:43:47.301Z,61.86
2023-03-20T07:46:13.919Z,61.74
2023-03-20T07:48:41.164Z,62.29
2023-03-20T07:51:08.060Z,62.31
2023-03-20T07:53:34.573Z,61.82
2023-03-20T07:56:01.135Z,62.01
2023-03-20T07:58:27.628Z,61.78
2023-03-20T08:00:56.482Z,61.95
2023-03-20T08:03:23.054Z,61.53
2023-03-20T08:05:49.935Z,61.55
2023-03-20T08:08:16.606Z,61.37
2023-03-20T08:10:43.467Z,60.99
2023-03-20T08:13:10.003Z,60.87
2023-03-20T08:15:36.738Z,60.58
2023-03-20T08:18:03.825Z,60.60
2023-03-20T08:20:31.613Z,60.01
2023-03-20T08:22:58.122Z,60.15
2023-03-20T08:25:24.584Z,59.46
2023-03-20T08:27:51.145Z,59.87
2023-03-20T08:30:17.782Z,60.39
2023-03-20T08:32:44.352Z,60.72
2023-03-20T08:35:25.770Z,60.65
2023-03-20T08:37:56.545Z,60.85
2023-03-20T08:40:23.439Z,60.74
2023-03-20T08:42:49.980Z,60.41
2023-03-20T08:45:17.043Z,60.07
2023-03-20T08:47:43.702Z,59.74
2023-03-20T08:50:11.935Z,58.93
2023-03-20T08:52:38.460Z,59.02
2023-03-20T08:55:06.737Z,58.70
2023-03-20T08:57:33.184Z,58.36
2023-03-20T08:59:59.679Z,58.43
2023-03-20T09:02:26.456Z,58.31
2023-03-20T09:04:52.999Z,57.85
2023-03-20T09:07:19.522Z,57.99
2023-03-20T09:09:45.989Z,57.23
2023-03-20T09:12:12.520Z,57.23
2023-03-20T09:14:39.408Z,57.42
2023-03-20T09:17:05.937Z,57.26
2023-03-20T09:19:32.465Z,57.53
2023-03-20T09:21:59.809Z,57.32
2023-03-20T09:24:26.689Z,56.97
2023-03-20T09:26:53.194Z,56.82
2023-03-20T09:29:19.683Z,57.31
2023-03-20T09:31:46.288Z,57.10
2023-03-20T09:34:12.906Z,57.00
2023-03-20T09:36:39.383Z,56.96
2023-03-20T09:39:05.918Z,56.67
2023-03-20T09:41:45.861Z,56.93
2023-03-20T09:45:08.372Z,56.83
2023-03-20T09:47:59.709Z,55.98
2023-03-20T09:50:39.891Z,56.37
2023-03-20T09:53:33.330Z,56.70
2023-03-20T09:56:00.673Z,56.42
2023-03-20T09:58:34.109Z,54.82
2023-03-20T10:01:06.657Z,54.48
2023-03-20T10:03:47.701Z,54.42
2023-03-20T10:06:17.861Z,54.61
2023-03-20T10:08:46.447Z,54.13
2023-03-20T10:11:23.560Z,53.72
2023-03-20T10:14:22.429Z,52.92
2023-03-20T10:17:11.849Z,53.42
2023-03-20T10:19:53.499Z,53.18
2023-03-20T10:22:32.412Z,52.90
2023-03-20T10:25:15.675Z,52.69
2023-03-20T10:28:01.572Z,52.92
2023-03-20T10:30:51.307Z,50.81
2023-03-20T10:33:40.429Z,50.36
2023-03-20T10:36:38.965Z,51.11
2023-03-20T10:39:31.586Z,51.78
2023-03-20T10:42:03.802Z,51.39
2023-03-20T10:44:46.262Z,48.76
2023-03-20T10:47:19.051Z,50.08
2023-03-20T10:50:09.074Z,48.93
2023-03-20T10:52:41.732Z,49.55
2023-03-20T10:55:16.662Z,49.43
2023-03-20T10:57:53.238Z,49.28
2023-03-20T11:00:24.273Z,50.11
2023-03-20T11:02:50.910Z,50.48
2023-03-20T11:05:32.564Z,49.53
2023-03-20T11:08:12.397Z,49.56
2023-03-20T11:10:42.351Z,50.32
2023-03-20T11:13:43.850Z,46.27
2023-03-20T11:16:20.323Z,49.53
2023-03-20T11:18:49.331Z,48.90
2023-03-20T11:21:22.667Z,49.66
2023-03-20T11:23:50.842Z,49.32
2023-03-20T11:26:34.674Z,48.99
2023-03-20T11:29:01.682Z,48.15
2023-03-20T11:31:40.664Z,47.73
2023-03-20T11:34:07.400Z,48.10
2023-03-20T11:36:36.680Z,48.29
2023-03-20T11:39:16.122Z,46.96
2023-03-20T11:41:50.195Z,47.14
2023-03-20T11:44:36.648Z,46.38
2023-03-20T11:47:12.144Z,47.54
2023-03-20T11:49:57.523Z,46.04
2023-03-20T11:52:32.802Z,46.73
2023-03-20T11:55:04.269Z,46.48
2023-03-20T11:57:42.708Z,45.54
2023-03-20T12:00:11.930Z,46.39
2023-03-20T12:02:41.339Z,46.14
2023-03-20T12:05:31.470Z,43.96
2023-03-20T12:08:24.298Z,45.56
2023-03-20T12:10:59.417Z,44.99
2023-03-20T12:13:37.721Z,44.96
2023-03-20T12:16:16.117Z,46.17
2023-03-20T12:18:51.320Z,44.59
2023-03-20T12:21:36.468Z,44.51
2023-03-20T12:24:31.202Z,44.24
2023-03-20T12:27:37.833Z,44.35
2023-03-20T12:30:20.884Z,45.55
2023-03-20T12:33:20.503Z,45.14
2023-03-20T12:35:52.221Z,46.03
2023-03-20T12:38:28.597Z,44.54
2023-03-20T12:41:10.510Z,45.36
2023-03-20T12:44:05.227Z,44.82
2023-03-20T12:46:41.914Z,46.46
2023-03-20T12:49:32.890Z,45.94
2023-03-20T12:52:35.424Z,46.69
2023-03-20T12:55:25.951Z,46.68
2023-03-20T12:58:24.493Z,47.06
2023-03-20T13:01:05.774Z,47.52
2023-03-20T13:03:49.590Z,47.70
2023-03-20T13:06:49.694Z,47.81
2023-03-20T13:09:51.979Z,47.00
2023-03-20T13:12:43.833Z,47.43
2023-03-20T13:16:01.711Z,45.98
2023-03-20T13:18:45.422Z,47.30
2023-03-20T13:21:24.516Z,47.44
2023-03-20T13:24:10.951Z,46.86
2023-03-20T13:26:58.453Z,46.36
2023-03-20T13:29:34.245Z,46.04
2023-03-20T13:32:24.302Z,46.80
2023-03-20T13:34:54.480Z,46.69
2023-03-20T13:38:11.026Z,44.79
2023-03-20T13:40:44.028Z,46.62
2023-03-20T13:43:27.901Z,46.84
2023-03-20T13:46:08.684Z,46.74
2023-03-20T13:48:43.514Z,46.75
2023-03-20T13:51:40.928Z,45.98
2023-03-20T13:54:16.684Z,46.78
2023-03-20T13:57:10.529Z,45.73
2023-03-20T13:59:58.276Z,46.01
2023-03-20T14:02:53.962Z,47.50
2023-03-20T14:05:23.874Z,47.24
2023-03-20T14:07:57.378Z,46.56
2023-03-20T14:10:24.143Z,47.57
2023-03-20T14:13:00.800Z,47.24
2023-03-20T14:15:34.672Z,47.22
2023-03-20T14:18:16.662Z,47.15
2023-03-20T14:20:53.230Z,47.05
2023-03-20T14:23:49.188Z,46.02
2023-03-20T14:26:27.069Z,47.37
2023-03-20T14:29:02.535Z,47.87
2023-03-20T14:31:37.880Z,47.73
2023-03-20T14:34:12.216Z,47.93
2023-03-20T14:37:05.479Z,47.47
2023-03-20T14:40:04.088Z,47.72
2023-03-20T14:43:11.262Z,47.70
2023-03-20T14:45:47.359Z,47.89
2023-03-20T14:48:31.020Z,48.07
2023-03-20T14:51:18.426Z,47.84
2023-03-20T14:54:21.820Z,48.50
2023-03-20T14:56:50.590Z,48.94
2023-03-20T14:59:20.414Z,47.86
2023-03-20T15:01:58.685Z,48.69
2023-03-20T15:04:30.950Z,48.48
2023-03-20T15:07:01.942Z,48.51
2023-03-20T15:09:33.054Z,47.98
2023-03-20T15:12:04.197Z,48.16
2023-03-20T15:14:55.241Z,48.50
2023-03-20T15:17:39.749Z,48.13
2023-03-20T15:20:19.120Z,47.75
2023-03-20T15:23:01.235Z,47.03
2023-03-20T15:25:45.838Z,48.09
2023-03-20T15:28:19.518Z,48.08
2023-03-20T15:30:49.214Z,47.97
2023-03-20T15:33:28.567Z,47.49
2023-03-20T15:35:56.491Z,47.85
2023-03-20T15:38:32.988Z,47.22
2023-03-20T15:40:59.534Z,47.80
2023-03-20T15:43:27.840Z,47.54
2023-03-20T15:46:16.268Z,47.01
2023-03-20T15:48:49.185Z,47.20
2023-03-20T15:51:18.059Z,47.25
2023-03-20T15:53:48.352Z,47.09
2023-03-20T15:56:19.559Z,47.20
2023-03-20T15:58:52.504Z,47.35
2023-03-20T16:01:22.875Z,47.50
2023-03-20T16:03:51.284Z,46.93
2023-03-20T16:06:21.333Z,47.12
2023-03-20T16:09:06.290Z,46.97
2023-03-20T16:11:43.134Z,46.61
2023-03-20T16:14:23.300Z,47.05
2023-03-20T16:16:53.578Z,47.44
2023-03-20T16:19:20.557Z,47.34
2023-03-20T16:22:02.662Z,46.59
2023-03-20T16:24:39.340Z,46.86
2023-03-20T16:27:10.354Z,47.14
2023-03-20T16:29:42.637Z,47.64
2023-03-20T16:32:31.608Z,47.26
2023-03-20T16:35:01.365Z,47.46
2023-03-20T16:37:42.803Z,47.72
2023-03-20T16:40:34.628Z,48.12
2023-03-20T16:43:17.754Z,47.87
2023-03-20T16:45:51.292Z,47.75
2023-03-20T16:48:26.636Z,47.75
2023-03-20T16:51:17.751Z,48.53
2023-03-20T16:53:58.270Z,48.33
2023-03-20T16:56:38.238Z,48.96
2023-03-20T16:59:11.549Z,48.84
2023-03-20T17:01:44.789Z,49.32
2023-03-20T17:04:23.876Z,49.27
2023-03-20T17:06:59.173Z,48.80
2023-03-20T17:09:31.592Z,48.42
2023-03-20T17:12:14.512Z,49.14
2023-03-20T17:14:41.547Z,48.71
2023-03-20T17:17:20.942Z,49.36
2023-03-20T17:19:51.795Z,49.65
2023-03-20T17:22:25.344Z,49.92
2023-03-20T17:24:52.740Z,50.39
2023-03-20T17:27:20.629Z,50.16
2023-03-20T17:29:51.042Z,50.58
2023-03-20T17:32:23.885Z,50.70
2023-03-20T17:34:51.374Z,51.43
2023-03-20T17:37:27.149Z,51.35
2023-03-20T17:39:55.726Z,51.17
2023-03-20T17:42:30.545Z,51.64
2023-03-20T17:44:59.092Z,51.91
2023-03-20T17:47:27.914Z,52.04
2023-03-20T17:49:54.875Z,51.86
2023-03-20T17:52:28.201Z,51.95
2023-03-20T17:54:55.011Z,52.16
2023-03-20T17:57:31.573Z,52.18
2023-03-20T17:59:58.784Z,53.28
2023-03-20T18:02:25.516Z,53.84
2023-03-20T18:04:52.508Z,53.17
2023-03-20T18:07:20.093Z,52.75
2023-03-20T18:09:47.415Z,52.73
2023-03-20T18:12:17.452Z,51.91
2023-03-20T18:14:45.936Z,52.77
2023-03-20T18:17:15.243Z,52.10
2023-03-20T18:19:44.014Z,52.78
2023-03-20T18:22:11.252Z,53.02
2023-03-20T18:24:43.394Z,53.12
2023-03-20T18:27:11.663Z,53.51
2023-03-20T18:29:41.172Z,52.69
2023-03-20T18:32:07.685Z,52.51
2023-03-20T18:34:34.158Z,52.74
2023-03-20T18:37:01.303Z,53.04
2023-03-20T18:39:27.871Z,53.17
2023-03-20T18:41:54.540Z,53.18
2023-03-20T18:44:21.761Z,53.38
2023-03-20T18:46:49.434Z,53.81
2023-03-20T18:49:17.986Z,53.74
2023-03-20T18:51:45.688Z,54.07
2023-03-20T18:54:12.693Z,53.86
2023-03-20T18:56:39.243Z,54.14
2023-03-20T18:59:10.482Z,53.93
2023-03-20T19:01:37.129Z,54.27
2023-03-20T19:04:03.665Z,54.29
2023-03-20T19:06:32.031Z,54.28
2023-03-20T19:08:58.879Z,53.84
2023-03-20T19:11:25.554Z,53.95
2023-03-20T19:13:53.841Z,54.08
2023-03-20T19:16:25.805Z,54.74
2023-03-20T19:18:58.864Z,54.52
2023-03-20T19:21:28.921Z,54.81
2023-03-20T19:24:05.948Z,54.32
2023-03-20T19:26:35.747Z,54.51
2023-03-20T19:29:10.041Z,54.74
2023-03-20T19:31:36.896Z,54.74
2023-03-20T19:34:03.414Z,54.97
2023-03-20T19:36:36.791Z,54.97
2023-03-20T19:39:07.373Z,54.83
2023-03-20T19:41:34.258Z,54.66
2023-03-20T19:44:01.510Z,54.77
2023-03-20T19:46:44.032Z,55.06
2023-03-20T19:49:30.206Z,55.22
2023-03-20T19:51:57.443Z,55.14
2023-03-20T19:54:24.027Z,55.40
2023-03-20T19:56:50.588Z,55.04
2023-03-20T19:59:17.371Z,55.02
2023-03-20T20:01:45.580Z,55.04
2023-03-20T20:04:12.377Z,55.01
2023-03-20T20:06:39.904Z,54.77
2023-03-20T20:09:07.018Z,54.77
2023-03-20T20:11:33.546Z,54.31
2023-03-20T20:14:09.349Z,54.28
2023-03-20T20:16:39.475Z,55.61
2023-03-20T20:19:06.284Z,54.88
2023-03-20T20:24:19.789Z,54.86
2023-03-20T20:27:11.646Z,55.17
2023-03-20T20:29:41.908Z,55.13
2023-03-20T20:32:08.618Z,54.79
2023-03-20T20:40:14.238Z,55.79
2023-03-20T20:42:42.441Z,56.22
2023-03-20T20:45:14.556Z,55.81
2023-03-20T20:47:44.797Z,55.83
2023-03-20T20:50:15.285Z,55.91
2023-03-20T20:52:42.860Z,55.92
2023-03-20T20:55:26.567Z,56.10
2023-03-20T20:57:55.620Z,56.14
2023-03-20T21:00:41.005Z,55.53
2023-03-20T21:03:12.564Z,55.46
2023-03-20T21:05:42.762Z,55.53
2023-03-20T21:08:11.220Z,55.07
2023-03-20T21:10:37.726Z,55.08
2023-03-20T21:13:04.203Z,54.93
2023-03-20T21:15:30.706Z,55.63
2023-03-20T21:18:01.573Z,55.78
2023-03-20T21:20:30.179Z,55.50
2023-03-20T21:22:56.753Z,55.38
2023-03-20T21:25:36.388Z,55.64
2023-03-20T21:28:05.396Z,55.75
2023-03-20T21:30:33.523Z,56.13
2023-03-20T21:33:00.503Z,56.38
2023-03-20T21:35:27.475Z,56.28
2023-03-20T21:40:41.820Z,55.99
2023-03-20T21:43:09.315Z,55.42
2023-03-20T21:49:15.768Z,55.47
2023-03-20T21:52:14.501Z,56.14
2023-03-20T21:54:48.673Z,56.40
2023-03-20T21:57:18.912Z,56.64
2023-03-20T22:00:20.296Z,57.26
2023-03-20T22:02:23.673Z,57.40
2023-03-20T22:05:50.411Z,56.92
2023-03-20T22:08:19.527Z,57.03
2023-03-20T22:11:20.291Z,56.73
2023-03-20T22:14:09.137Z,56.67
2023-03-20T22:16:57.579Z,57.02
2023-03-20T22:19:41.551Z,56.73
2023-03-20T22:30:41.948Z,56.96
2023-03-20T22:33:46.957Z,57.34
2023-03-20T22:36:19.779Z,57.23
2023-03-20T22:39:11.731Z,56.96
2023-03-20T22:46:45.672Z,57.65
2023-03-20T22:49:13.277Z,57.68
2023-03-20T22:51:52.106Z,57.49
2023-03-20T22:54:24.444Z,57.05
2023-03-20T22:56:50.921Z,56.85
2023-03-20T22:59:17.387Z,57.24
2023-03-20T23:01:43.871Z,57.19
2023-03-20T23:04:10.373Z,57.32
2023-03-20T23:06:36.880Z,57.38
2023-03-20T23:09:12.843Z,57.44
2023-03-20T23:11:41.769Z,57.37
2023-03-20T23:14:18.163Z,57.43
2023-03-20T23:16:49.653Z,57.33
2023-03-20T23:19:16.673Z,57.48
2023-03-20T23:21:43.269Z,57.56
2023-03-20T23:24:09.896Z,57.74
2023-03-20T23:26:36.473Z,57.33
2023-03-20T23:29:03.521Z,57.58
2023-03-20T23:31:30.262Z,57.10
2023-03-20T23:33:58.108Z,57.07
2023-03-20T23:36:36.461Z,57.41
2023-03-20T23:39:07.002Z,57.58
2023-03-20T23:42:03.975Z,57.60
2023-03-20T23:44:20.872Z,58.39
2023-03-20T23:46:48.352Z,58.21
2023-03-20T23:49:16.346Z,58.18
2023-03-20T23:51:42.891Z,58.39
2023-03-20T23:54:09.372Z,57.82
2023-03-20T23:56:35.861Z,57.66
2023-03-20T23:59:14.704Z,57.43
